Blue Yonder — WCW3625 — position and weather

sailwx.info

Track history (hours):
 
Tides and Currents Weather Stations Pressure Air Temp Water Temp Dewpoint Dewpoint Depression Visibility Wind Speed Wind Dir Waves Ship Positions

Blue Yonder

Owner: BRIDGES, DAVID M, VIRGINIA BEACH, VA. More information available from US FCC via Universal Licensing System and Coast Guard Vessel Documentation Center.

Last reported at 2015-Apr-19 12:29 UTC. Time now 2015-May-04 14:04 UTC.
Position N 28°08' W 080°37'.
Warning: this ship's position is 15 days out of date.

Length 12 m.

Type: Sailing vessel. MMSI: 367091720.

Date/timePositionNaut miles runAvg speedWind from/ knotsBaromVisibWave heightAir tempDewpointWater temp
2015-Apr-19 12:29N 28°08' W 080°37'0 0.0
2015-Apr-19 11:14N 28°08' W 080°37'0 0.0
2015-Apr-19 10:32N 28°08' W 080°37'0 0.0
2015-Apr-19 08:26N 28°08' W 080°37'0 0.0
2015-Apr-19 07:32N 28°08' W 080°37'0 0.0
2015-Apr-19 06:32N 28°08' W 080°37'0 0.0
2015-Apr-19 05:32N 28°08' W 080°37'0 0.0
2015-Apr-19 04:33N 28°08' W 080°37'0 0.0
2015-Apr-19 03:33N 28°08' W 080°37'0 0.0
2015-Apr-19 02:33N 28°08' W 080°37'0 0.0
2015-Apr-19 01:30N 28°08' W 080°37'0 0.0
2015-Apr-19 00:33N 28°08' W 080°37'  
2015-Apr-16 17:33N 26°57' W 080°03'30 7.5
2015-Apr-16 13:31N 26°27' W 080°01'7 7.1
2015-Apr-16 12:30N 26°20' W 080°01'8 8.4
2015-Apr-16 11:29N 26°12' W 080°03'7 6.4
2015-Apr-16 10:28N 26°06' W 080°06'2 2.3
2015-Apr-16 09:33N 26°08' W 080°07'  
Track history (hours):
 
Tides and Currents Weather Stations Pressure Air Temp Water Temp Dewpoint Dewpoint Depression Visibility Wind Speed Wind Dir Waves Ship Positions

Blue Yonder

Owner: BRIDGES, DAVID M, VIRGINIA BEACH, VA. More information available from US FCC via Universal Licensing System and Coast Guard Vessel Documentation Center.

Last reported at 2015-Apr-19 12:29 UTC. Time now 2015-May-04 14:04 UTC.
Position N 28°08' W 080°37'.
Warning: this ship's position is 15 days out of date.

Length 12 m.

Type: Sailing vessel. MMSI: 367091720.

Date/timePositionNaut miles runAvg speedWind from/ knotsBaromVisibWave heightAir tempDewpointWater temp
2015-Apr-19 12:29N 28°08' W 080°37'0 0.0
2015-Apr-19 11:14N 28°08' W 080°37'0 0.0
2015-Apr-19 10:32N 28°08' W 080°37'0 0.0
2015-Apr-19 08:26N 28°08' W 080°37'0 0.0
2015-Apr-19 07:32N 28°08' W 080°37'0 0.0
2015-Apr-19 06:32N 28°08' W 080°37'0 0.0
2015-Apr-19 05:32N 28°08' W 080°37'0 0.0
2015-Apr-19 04:33N 28°08' W 080°37'0 0.0
2015-Apr-19 03:33N 28°08' W 080°37'0 0.0
2015-Apr-19 02:33N 28°08' W 080°37'0 0.0
2015-Apr-19 01:30N 28°08' W 080°37'0 0.0
2015-Apr-19 00:33N 28°08' W 080°37'  
2015-Apr-16 17:33N 26°57' W 080°03'30 7.5
2015-Apr-16 13:31N 26°27' W 080°01'7 7.1
2015-Apr-16 12:30N 26°20' W 080°01'8 8.4
2015-Apr-16 11:29N 26°12' W 080°03'7 6.4
2015-Apr-16 10:28N 26°06' W 080°06'2 2.3
2015-Apr-16 09:33N 26°08' W 080°07'  

Dump ship's entire track history